Aérodrome :
LOGIN :

S'inscrire | Disclaimer

   EN    FR    IT 

 










Légende :    VFR   VFR Marginal   IFR   IFR Intensif   IFR Très Intensif
Visi : 
Plafond : 
>= 8 km
>= 3000ft
5 à 8 km
1000 à 3000 ft
1500m à 5 km
500 à 1000 ft
800 à 1500m
200 à 500 ft
< 800m
< 200 ft
Symboles :   Orages  Brouillard  Fortes neiges  Fortes précipitations  Vent > 20 kt
SIGMETs :   Divers  Orages  Givrage  Turbulence  Onde Orograph.  Cendres Volcan.






- Altitude de l'aérodrome : 353 ft
- Code IATA : LIN


LIML - Milano Linate

DERNIER METAR :
  • 161050Z 24003KT 200V270 1600 -DZ BR SCT004 BKN020 07/07 Q1022 NOSIG

METARs EXPIRÉS :
  • 161020Z VRB02KT 1500 -DZ BR SCT004 BKN020 07/07 Q1022 NOSIG
  • 160950Z 21004KT 190V260 2000 -DZ SCT005 BKN030 07/07 Q1022 NOSIG
  • 160920Z 20002KT 2000 -DZ SCT007 BKN030 07/07 Q1022 NOSIG
  • 160850Z VRB02KT 2000 -DZ SCT010 BKN030 07/07 Q1021 NOSIG
  • 160820Z VRB01KT 2000 -DZ SCT010 BKN030 07/07 Q1021 NOSIG

TAF TAF LIML
Valide du 16 à 06h jusqu'au 17 à 06h UTC


160500Z 1606/1706 VRB05KT 4000 BR BKN020 BKN050
TEMPO 1606/1706 2000 DZ BKN012 BKN040



MET'MAP, la Météo Aéronautique d'un coup d'oeil ! - Copyright ORBIFLY Décembre 2007 - Disclaimer

ORBIFLY MET'MAP TEAM :

Programmation & Développement : Alexandra Zaïnal
Sur une idée originale de : Baudouin d'Aumeries
Assistance à la programmation : Marc-Olivier Méhu
Soutien technique & logistique : Manuel Goepfert

Contact : metmap@orbifly.com




SOURCES & CREDITS :

   NOAA